Latest Weather Observations for Kanagulk

IDV60801

Issued at 8:35 pm EDT Wednesday 22 October 2014 (issued every 30 minutes, with the page automatically refreshed every 10 minutes)

About weather observations | Map of weather stations | Latest weather observations for VIC | Other Formats
Station Details ID: 079097 Name: KANAGULK Lat: -37.12 Lon: 141.80 Height: 188.8 m
Data from the previous 72 hours. | See also: Recent months at Kanagulk
Date/Time
EDT
Temp
°C
App
Temp
°C
Dew
Point
Rel
Hum
%
Delta-T
°C
Wind Press
QNH
hPa
Press
MSL
hPa
Rain
since 9 am
mm
Dir
 
Spd
km/h
Gust
km/h
Spd
kts
Gust
kts
22/08:30pm 18.4 14.8 11.7 65 3.7 S 22 30 12 16 1017.9 1017.9 0.2
22/08:00pm 20.6 17.1 11.0 54 5.3 S 20 30 11 16 1017.2 1017.2 0.2
22/07:30pm 22.6 18.1 12.5 53 5.8 SSE 28 37 15 20 1016.6 1016.6 0.2
22/07:00pm 25.1 21.9 12.0 44 7.5 S 20 30 11 16 1016.0 1015.9 0.2
22/06:30pm 26.2 22.6 10.4 37 8.9 S 20 32 11 17 1015.8 1015.7 0.2
22/06:00pm 27.4 23.4 11.8 38 9.0 S 24 35 13 19 1015.3 1015.2 0.2
22/05:30pm 28.4 24.9 13.5 40 8.9 S 24 37 13 20 1015.1 1015.0 0.2
22/05:00pm 30.1 27.7 10.1 29 11.4 SE 13 19 7 10 1015.0 1014.9 0.2
22/04:30pm 29.3 24.6 6.0 23 12.4 SSW 20 28 11 15 1014.8 1014.7 0.0
22/04:00pm 30.9 24.6 3.8 18 14.0 NNW 26 44 14 24 1013.9 1013.8 0.0
22/03:52pm 33.1 26.6 4.8 17 15.1 NNW 28 43 15 23 1013.9 1013.8 0.0
22/03:30pm 34.3 30.5 5.8 17 15.5 N 15 20 8 11 1014.0 1013.9 0.0
22/03:00pm 34.8 30.3 6.2 17 15.7 NNE 19 32 10 17 1014.5 1014.4 0.0
22/02:30pm 34.5 29.4 5.9 17 15.6 NNE 22 30 12 16 1015.0 1014.9 0.0
22/02:00pm 33.1 28.7 6.4 19 14.6 N 19 33 10 18 1015.6 1015.5 0.0
22/01:30pm 32.5 27.6 6.7 20 14.1 N 22 35 12 19 1015.9 1015.8 0.0
22/01:00pm 31.8 27.4 7.5 22 13.4 N 20 35 11 19 1016.4 1016.3 0.0
22/12:30pm 29.9 25.8 7.7 25 12.2 N 19 30 10 16 1017.0 1017.0 0.0
22/12:00pm 29.2 25.1 7.7 26 11.7 N 19 26 10 14 1017.4 1017.4 0.0
22/11:30am 27.9 24.0 8.7 30 10.6 NNE 19 28 10 15 1017.8 1017.8 0.0
22/11:00am 26.7 22.7 9.1 33 9.7 NNE 20 30 11 16 1018.1 1018.1 0.0
22/10:30am 25.0 21.2 9.7 38 8.4 NNE 20 28 11 15 1018.2 1018.2 0.0
22/10:00am 23.3 19.5 9.7 42 7.4 NE 20 28 11 15 1018.2 1018.2 0.0
22/09:30am 22.8 19.4 10.6 46 6.8 NE 19 26 10 14 1018.2 1018.2 0.0
22/09:00am 20.3 16.5 9.2 49 5.9 NE 19 26 10 14 1018.2 1018.2 0.0
22/08:30am 19.9 16.9 9.2 50 5.7 NNE 15 20 8 11 1018.4 1018.4 0.0
22/08:00am 20.2 16.7 8.8 48 6.0 NE 17 22 9 12 1018.4 1018.4 0.0
22/07:30am 18.2 15.8 8.5 53 5.1 NNE 11 15 6 8 1018.4 1018.4 0.0
22/07:00am 18.4 15.6 8.4 52 5.2 NE 13 17 7 9 1018.2 1018.2 0.0
22/06:30am 18.9 16.4 8.3 50 5.5 NE 11 17 6 9 1018.3 1018.3 0.0
22/06:00am 19.4 16.1 8.1 48 5.9 NE 15 20 8 11 1018.3 1018.3 0.0
22/05:30am 20.0 16.4 8.4 47 6.1 N 17 26 9 14 1018.3 1018.3 0.0
22/05:00am 20.9 17.3 8.2 44 6.7 N 17 22 9 12 1018.1 1018.1 0.0
22/04:30am 20.9 18.8 8.2 44 6.7 NNE 9 11 5 6 1018.0 1018.0 0.0
22/04:00am 21.5 15.8 8.4 43 6.9 NE 28 37 15 20 1017.6 1017.6 0.0
22/03:30am 21.7 17.8 8.6 43 7.0 NNE 19 30 10 16 1018.6 1018.6 0.0
22/03:00am 21.2 17.1 8.5 44 6.7 NNE 20 30 11 16 1018.6 1018.6 0.0
22/02:30am 21.2 16.7 8.5 44 6.7 NNE 22 30 12 16 1019.1 1019.0 0.0
22/02:00am 20.6 16.5 7.9 44 6.6 NE 19 26 10 14 1019.2 1019.1 0.0
22/01:30am 20.3 16.5 7.7 44 6.5 NNE 17 22 9 12 1019.6 1019.5 0.0
22/01:00am 20.9 17.0 7.2 41 7.1 NE 17 20 9 11 1020.0 1019.9 0.0
22/12:30am 21.2 16.8 6.7 39 7.4 NE 19 24 10 13 1020.2 1020.1 0.0
22/12:00am 21.6 17.0 6.3 37 7.8 NE 20 26 11 14 1020.3 1020.2 0.0
 
Date/Time
EDT
Temp
°C
App
Temp
°C
Dew
Point
Rel
Hum
%
Delta-T
°C
Wind Press
QNH
hPa
Press
MSL
hPa
Rain
since 9 am
mm
Dir
 
Spd
km/h
Gust
km/h
Spd
kts
Gust
kts
21/11:30pm 21.9 17.2 6.2 36 8.0 NE 20 24 11 13 1020.4 1020.3 0.0
21/11:00pm 20.6 16.4 5.8 38 7.4 NE 17 20 9 11 1020.7 1020.6 0.0
21/10:30pm 18.1 14.7 5.7 44 6.1 NE 13 15 7 8 1020.9 1020.8 0.0
21/10:00pm 18.3 15.5 5.2 42 6.4 ENE 9 13 5 7 1021.0 1021.0 0.0
21/09:30pm 20.1 16.8 4.6 36 7.6 ENE 11 13 6 7 1021.0 1021.0 0.0
21/09:00pm 20.8 17.1 4.4 34 8.0 NE 13 15 7 8 1020.7 1020.6 0.0
21/08:30pm 20.6 17.2 4.2 34 8.0 ENE 11 15 6 8 1020.6 1020.5 0.0
21/08:00pm 22.2 18.5 4.7 32 8.7 ENE 13 13 7 7 1020.5 1020.4 0.0
21/07:30pm 25.2 21.9 4.3 26 10.5 ENE 11 15 6 8 1020.5 1020.4 0.0
21/07:00pm 28.0 24.5 3.7 21 12.3 ENE 11 15 6 8 1020.4 1020.3 0.0
21/06:30pm 29.0 24.0 1.5 17 13.5 NE 17 20 9 11 1020.4 1020.3 0.0
21/06:00pm 29.7 25.4 1.2 16 13.9 ENE 13 20 7 11 1020.5 1020.4 0.0
21/05:30pm 29.8 25.5 1.3 16 14.0 NE 13 20 7 11 1020.6 1020.5 0.0
21/05:00pm 30.1 25.9 1.5 16 14.1 ENE 13 19 7 10 1020.8 1020.7 0.0
21/04:30pm 29.4 26.6 3.4 19 13.2 NE 7 13 4 7 1021.0 1021.0 0.0
21/04:00pm 29.8 26.3 1.3 16 14.0 NNE 9 17 5 9 1021.4 1021.4 0.0
21/03:30pm 29.3 26.1 3.3 19 13.2 N 9 22 5 12 1021.8 1021.8 0.0
21/03:00pm 29.4 25.8 4.8 21 12.8 NE 13 22 7 12 1022.3 1022.3 0.0
21/02:30pm 27.7 23.3 4.7 23 11.8 N 17 26 9 14 1022.8 1022.8 0.0
21/02:00pm 27.5 22.8 5.1 24 11.6 NE 19 24 10 13 1023.2 1023.2 0.0
21/01:30pm 26.6 22.0 5.5 26 10.9 NNE 19 26 10 14 1023.5 1023.5 0.0
21/01:00pm 25.8 21.7 6.4 29 10.1 NNE 17 24 9 13 1024.0 1024.0 0.0
21/12:30pm 24.0 18.7 4.9 29 9.6 NNE 22 30 12 16 1024.5 1024.4 0.0
21/12:00pm 23.0 19.1 7.1 36 8.3 NNE 17 24 9 13 1024.8 1024.7 0.0
21/11:30am 21.5 17.6 7.0 39 7.5 NNE 17 26 9 14 1024.8 1024.7 0.0
21/11:00am 21.1 16.7 7.3 41 7.1 NNE 20 30 11 16 1025.0 1024.9 0.0
21/10:30am 20.0 15.1 7.1 43 6.6 NNE 22 33 12 18 1024.9 1024.8 0.0
21/10:00am 18.8 13.1 6.9 46 6.0 NNE 26 33 14 18 1024.9 1024.8 0.0
21/09:30am 16.8 10.4 6.9 52 5.0 NNE 30 39 16 21 1024.7 1024.6 0.0
21/09:00am 14.8 8.5 5.9 55 4.3 NE 28 32 15 17 1024.7 1024.6 0.0
21/08:30am 10.8 8.9 7.7 81 1.5 NE 7 9 4 5 1024.8 1024.7 0.0
21/08:00am 8.2 7.6 7.6 96 0.3 CALM 0 0 0 0 1024.7 1024.6 0.0
21/07:30am 5.2 4.0 4.6 96 0.3 CALM 0 4 0 2 1024.6 1024.5 0.0
21/07:00am 4.0 1.2 3.4 96 0.2 ENE 7 9 4 5 1024.4 1024.3 0.0
21/06:30am 4.6 2.5 4.0 96 0.3 SSE 4 7 2 4 1023.7 1023.7 0.0
21/06:00am 4.7 2.2 4.0 95 0.3 SE 6 9 3 5 1023.4 1023.4 0.0
21/05:30am 5.0 3.7 4.3 95 0.3 CALM 0 0 0 0 1023.3 1023.3 0.0
21/05:00am 4.7 3.3 3.7 93 0.4 CALM 0 0 0 0 1023.5 1023.5 0.0
21/04:30am 4.8 3.4 3.6 92 0.5 CALM 0 0 0 0 1023.5 1023.5 0.0
21/04:00am 5.7 4.4 4.2 90 0.6 CALM 0 0 0 0 1023.5 1023.5 0.0
21/03:30am 6.1 4.9 4.4 89 0.7 CALM 0 0 0 0 1023.8 1023.8 0.0
21/03:00am 6.9 4.7 5.2 89 0.8 SE 6 9 3 5 1024.1 1024.1 0.0
21/02:30am 6.0 3.4 4.0 87 0.9 SSE 7 9 4 5 1024.4 1024.3 0.0
21/02:00am 7.0 5.3 4.0 81 1.3 SE 2 6 1 3 1024.7 1024.6 0.0
21/01:30am 8.3 5.9 5.2 81 1.4 S 7 9 4 5 1025.0 1024.9 0.0
21/01:00am 7.9 5.0 4.8 81 1.4 SSE 9 11 5 6 1025.2 1025.1 0.0
21/12:30am 8.3 5.1 5.2 81 1.4 SSE 11 15 6 8 1025.4 1025.3 0.0
21/12:00am 8.1 4.7 3.9 75 1.8 SSE 11 13 6 7 1025.6 1025.6 0.0
 
Date/Time
EDT
Temp
°C
App
Temp
°C
Dew
Point
Rel
Hum
%
Delta-T
°C
Wind Press
QNH
hPa
Press
MSL
hPa
Rain
since 9 am
mm
Dir
 
Spd
km/h
Gust
km/h
Spd
kts
Gust
kts
20/11:30pm 8.9 5.8 3.5 69 2.4 S 9 11 5 6 1025.6 1025.6 0.0
20/11:00pm 9.9 7.4 4.7 70 2.3 SSE 7 7 4 4 1025.7 1025.7 0.0
20/10:30pm 10.7 8.1 4.2 64 2.9 SSE 7 9 4 5 1025.7 1025.7 0.0
20/10:00pm 11.3 8.0 4.3 62 3.2 SSE 11 13 6 7 1025.6 1025.6 0.0
20/09:30pm 11.6 7.8 4.1 60 3.4 SSE 13 15 7 8 1025.6 1025.6 0.0
20/09:00pm 12.8 9.0 4.0 55 4.0 SSE 13 15 7 8 1025.5 1025.5 0.0
20/08:30pm 14.0 10.2 3.8 50 4.7 SSE 13 17 7 9 1025.1 1025.0 0.0
20/08:00pm 15.3 11.4 3.5 45 5.4 SSE 13 17 7 9 1024.9 1024.8 0.0
20/07:30pm 17.4 12.9 4.0 41 6.3 SSE 17 22 9 12 1024.7 1024.6 0.0
20/07:00pm 19.1 14.0 4.1 37 7.2 SSE 20 30 11 16 1024.5 1024.4 0.0
20/06:30pm 20.5 14.6 4.1 34 8.0 SSE 24 32 13 17 1024.5 1024.4 0.0
20/06:00pm 21.5 15.6 4.1 32 8.5 S 24 32 13 17 1024.8 1024.7 0.0
20/05:30pm 22.3 17.1 3.4 29 9.2 S 20 32 11 17 1025.0 1024.9 0.0
20/05:00pm 22.9 17.7 3.4 28 9.5 S 20 28 11 15 1025.0 1024.9 0.0
20/04:30pm 22.7 18.0 3.3 28 9.4 S 17 24 9 13 1025.2 1025.1 0.0
20/04:00pm 22.7 18.3 2.8 27 9.5 SSE 15 24 8 13 1025.4 1025.3 0.0
20/03:30pm 22.6 17.4 3.7 29 9.2 S 20 26 11 14 1025.6 1025.6 0.0
20/03:00pm 22.1 17.4 3.3 29 9.0 SSE 17 22 9 12 1025.8 1025.8 0.0
20/02:30pm 21.4 17.5 3.6 31 8.6 S 13 20 7 11 1026.1 1026.1 0.0
20/02:00pm 21.0 17.0 2.8 30 8.6 ESE 13 20 7 11 1026.5 1026.5 0.0
20/01:30pm 20.0 16.1 3.3 33 8.0 S 13 20 7 11 1026.6 1026.6 0.0
20/01:00pm 19.8 15.9 3.5 34 7.7 S 13 20 7 11 1027.1 1027.1 0.0
20/12:30pm 19.1 15.6 3.7 36 7.3 S 11 28 6 15 1027.6 1027.6 0.0
20/12:00pm 17.9 15.0 2.6 36 7.0 ESE 7 13 4 7 1028.0 1028.0 0.0
20/11:30am 16.8 13.6 2.8 39 6.4 S 9 15 5 8 1028.5 1028.5 0.0
20/11:00am 15.8 12.5 2.6 41 6.0 SSE 9 15 5 8 1028.7 1028.7 0.0
20/10:30am 15.4 12.9 5.0 50 5.0 SSE 7 15 4 8 1028.7 1028.7 0.0
20/10:00am 13.9 11.4 4.5 53 4.3 ESE 7 13 4 7 1028.7 1028.7 0.0
20/09:30am 13.2 10.3 4.9 57 3.9 SSE 9 15 5 8 1028.6 1028.6 0.0
20/09:00am 12.1 8.9 5.0 62 3.3 SSE 11 17 6 9 1028.3 1028.3 0.0
20/08:30am 11.0 7.0 4.9 66 2.8 SE 15 20 8 11 1027.7 1027.7 0.0
20/08:00am 10.0 6.2 5.6 74 2.0 SSE 15 20 8 11 1027.3 1027.3 0.0
20/07:30am 8.6 5.2 5.7 82 1.3 SSE 13 17 7 9 1027.2 1027.2 0.0
20/07:00am 7.7 3.8 5.3 85 1.1 SSE 15 17 8 9 1026.8 1026.8 0.0
20/06:30am 7.3 3.7 4.8 84 1.1 SSE 13 17 7 9 1026.5 1026.5 0.0
20/06:00am 7.7 3.7 4.8 82 1.3 SSE 15 20 8 11 1026.1 1026.1 0.0
20/05:30am 7.9 3.5 4.8 81 1.4 SSE 17 22 9 12 1025.8 1025.8 0.0
20/05:00am 8.3 3.4 5.1 80 1.4 SSE 20 26 11 14 1025.8 1025.8 0.0
20/04:30am 8.6 3.8 5.7 82 1.3 SSE 20 26 11 14 1025.8 1025.8 0.0
20/04:00am 8.9 4.4 6.2 83 1.2 SSE 19 24 10 13 1025.5 1025.5 0.0
20/03:30am 9.2 3.9 6.8 85 1.1 SSE 24 35 13 19 1025.5 1025.5 0.0
20/03:00am 9.5 3.1 7.1 85 1.1 SSE 30 39 16 21 1025.6 1025.6 0.0
20/02:30am 9.9 3.3 7.7 86 1.1 SSE 32 44 17 24 1025.7 1025.7 0.0
20/02:00am 10.1 3.5 7.9 86 1.1 SSE 32 46 17 25 1025.9 1025.9 0.0
20/01:30am 10.3 3.2 8.1 86 1.1 SSE 35 46 19 25 1025.9 1025.9 0.0
20/01:00am 10.3 4.1 7.9 85 1.2 SSE 30 39 16 21 1026.2 1026.2 0.0
20/12:41am 10.5 4.7 7.9 84 1.3 SSE 28 46 15 25 1026.2 1026.2 0.0
20/12:30am 10.7 3.9 7.9 83 1.4 SSE 33 46 18 25 1026.1 1026.1 0.0
20/12:05am 11.0 4.5 8.2 83 1.4 SSE 32 50 17 27 1026.1 1026.1 0.0
20/12:00am 11.2 4.2 8.4 83 1.4 SSE 35 50 19 27 1026.1 1026.1 0.0
 
Date/Time
EDT
Temp
°C
App
Temp
°C
Dew
Point
Rel
Hum
%
Delta-T
°C
Wind Press
QNH
hPa
Press
MSL
hPa
Rain
since 9 am
mm
Dir
 
Spd
km/h
Gust
km/h
Spd
kts
Gust
kts
19/11:39pm 11.6 5.3 9.0 84 1.3 SSE 32 54 17 29 1026.1 1026.1 0.0
19/11:30pm 11.6 5.3 9.0 84 1.3 SSE 32 46 17 25 1026.2 1026.2 0.0
19/11:00pm 11.5 4.9 8.7 83 1.4 SSE 33 46 18 25 1026.1 1026.1 0.0
19/10:30pm 11.9 5.6 8.9 82 1.5 SSE 32 46 17 25 1026.5 1026.5 0.0
19/10:00pm 12.2 6.0 9.2 82 1.5 SSE 32 43 17 23 1026.0 1026.0 0.0
19/09:30pm 12.7 6.5 9.3 80 1.7 SSE 32 43 17 23 1025.8 1025.8 0.0
19/09:00pm 13.1 6.9 9.4 78 1.9 SSE 32 46 17 25 1025.5 1025.5 0.0

Other Formats:

Comma delimited format used in spreadsheet applications
http://www.bom.gov.au/fwo/IDV60801/IDV60801.95827.axf

JavaScript Object Notation format (JSON) in row-major order
http://www.bom.gov.au/fwo/IDV60801/IDV60801.95827.json